This is the latest recevied weather packets stored in our database for station/object IZ2WMD-13. If no packets are shown the sender has not sent any weather packets the latest 10 day(s).
| Time | Temp. | Humidity | Pressure | Rain* | Wind** | Luminosity | Snow |
|---|---|---|---|---|---|---|---|
| 1777506285 | 12.78° C | 90% | 1020.3 hPa | - | - | - | - |
| 1777505080 | 13.33° C | 90% | 1020 hPa | - | - | - | - |
| 1777503875 | 13.89° C | 90% | 1019.7 hPa | - | - | - | - |
| 1777502671 | 13.33° C | 88% | 1019.5 hPa | - | - | - | - |
| 1777501466 | 13.89° C | 85% | 1019.4 hPa | - | - | - | - |
| 1777500262 | 14.44° C | 80% | 1018.8 hPa | - | - | - | - |
| 1777497853 | 15.56° C | 66% | 1018.1 hPa | - | - | - | - |
| 1777496648 | 15.56° C | 66% | 1017.6 hPa | - | - | - | - |
| 1777494239 | 16.11° C | 64% | 1017.3 hPa | - | - | - | - |
| 1777493034 | 16.11° C | 65% | 1017.2 hPa | - | - | - | - |
| 1777490626 | 16.67° C | 65% | 1016.5 hPa | - | - | - | - |
| 1777489421 | 17.22° C | 63% | 1016.1 hPa | - | - | - | - |
| 1777488217 | 17.22° C | 63% | 1015.8 hPa | - | - | - | - |
| 1777485808 | 17.78° C | 65% | 1015.1 hPa | - | - | - | - |
| 1777484603 | 18.33° C | 64% | 1014.7 hPa | - | - | - | - |
| 1777483399 | 18.89° C | 61% | 1014.5 hPa | - | - | - | - |
| 1777482194 | 18.89° C | 62% | 1014.4 hPa | - | - | - | - |
| 1777480990 | 18.89° C | 62% | 1014.5 hPa | - | - | - | - |
| 1777479786 | 18.89° C | 62% | 1014.5 hPa | - | - | - | - |
| 1777478581 | 18.89° C | 61% | 1014.6 hPa | - | - | - | - |
| 1777477377 | 19.44° C | 62% | 1014.8 hPa | - | - | - | - |
| 1777476172 | 19.44° C | 59% | 1014.6 hPa | - | - | - | - |
| 1777473763 | 21.67° C | 51% | 1014.4 hPa | - | - | - | - |
| 1777472559 | 22.22° C | 48% | 1014.3 hPa | - | - | - | - |
| 1777471354 | 22.78° C | 48% | 1014.3 hPa | - | - | - | - |
* Rain since midnight (hover to see other rain measurements)
** Current wind speed in m/s (hover to see current wind gust speed)